Time;durP1;ratioP1;P1;durP2;ratioP2;P2;SDS_P1;SDS_P2;PMS_P1;PMS_P2;Temp;Humidity;BMP_temperature;BMP_pressure;BME280_temperature;BME280_humidity;BME280_pressure;Samples;Min_cycle;Max_cycle;Signal;HPM_P1;HPM_P2
2022/01/23 00:01:08;;;;;;;;;;;;;;;3.35;40.40;100920.56;4395245;32;20434;-79
2022/01/23 00:03:42;;;;;;;;;;;;;;;3.46;39.54;100927.25;4398952;32;19993;-78
2022/01/23 00:06:09;;;;;;;;;;;;;;;3.25;40.05;100926.78;4397472;32;19986;-79
2022/01/23 00:08:36;;;;;;;;;;;;;;;3.29;39.50;100927.88;4397031;32;19982;-79
2022/01/23 00:11:03;;;;;;;;;;;;;;;3.19;39.77;100932.44;4406155;32;20031;-79
2022/01/23 00:17:13;;;;;;;;;;;;;;;3.42;39.52;100935.53;4400305;32;19982;-80
2022/01/23 00:19:05;;;;;;;;;;;;;;;3.05;40.02;100942.56;4411578;32;19997;-78
2022/01/23 00:21:34;;;;;;;;;;;;;;;3.10;39.84;100941.19;4428814;32;19970;-78
2022/01/23 00:32:01;;;;;;;;;;;;;;;2.75;40.77;100947.50;4424397;32;20041;-79
2022/01/23 00:34:28;;;;;;;;;;;;;;;2.76;40.27;100942.47;4414007;32;20043;-78
2022/01/23 00:36:55;;;;;;;;;;;;;;;2.65;40.97;100943.44;4387977;32;20061;-79
2022/01/23 00:39:22;;;;;;;;;;;;;;;2.62;40.67;100947.47;4389254;32;20405;-80
2022/01/23 00:41:49;;;;;;;;;;;;;;;2.62;40.32;100940.69;4416803;32;19997;-78
2022/01/23 00:44:16;;;;;;;;;;;;;;;2.59;40.49;100939.59;4416271;32;19973;-79
2022/01/23 00:46:49;;;;;;;;;;;;;;;2.50;40.48;100934.78;4416118;32;20686;-80
2022/01/23 00:49:26;;;;;;;;;;;;;;;2.49;40.66;100932.97;4415436;32;20045;-80
2022/01/23 00:51:55;;;;;;;;;;;;;;;2.28;40.85;100951.22;4416214;32;20005;-79
2022/01/23 00:54:23;;;;;;;;;;;;;;;2.28;41.01;100947.78;4416166;32;19978;-79
2022/01/23 00:56:50;;;;;;;;;;;;;;;2.32;41.16;100945.53;4415997;32;20001;-80
2022/01/23 00:59:18;;;;;;;;;;;;;;;2.42;40.85;100951.25;4402229;32;20039;-79
2022/01/23 01:01:45;;;;;;;;;;;;;;;2.22;41.76;100953.38;4415930;32;19981;-81
2022/01/23 01:04:13;;;;;;;;;;;;;;;2.30;41.45;100948.78;4402313;32;20000;-80
2022/01/23 01:06:39;;;;;;;;;;;;;;;2.33;41.64;100942.22;4390836;32;20020;-78
2022/01/23 01:09:09;;;;;;;0.00;0.00;;;;;;;2.47;40.77;100944.78;4414776;32;20278;-78
2022/01/23 01:11:59;;;;;;;0.00;0.00;;;;;;;2.23;41.06;100939.81;4397586;32;20299;-79
2022/01/23 01:17:15;;;;;;;0.00;0.00;;;;;;;2.14;41.16;100929.00;4410132;32;20275;-79
2022/01/23 01:33:37;;;;;;;0.50;0.50;;;;;;;2.09;42.26;100910.78;4407596;32;20760;-79
2022/01/23 01:36:25;;;;;;;0.30;0.30;;;;;;;2.45;41.99;100905.47;4408151;32;20274;-79
2022/01/23 01:38:53;;;;;;;0.43;0.43;;;;;;;2.26;42.64;100911.91;4402631;32;20269;-78
2022/01/23 01:41:21;;;;;;;0.10;0.10;;;;;;;2.29;42.65;100917.22;4415053;32;20648;-80
2022/01/23 01:43:50;;;;;;;0.00;0.00;;;;;;;2.50;42.08;100914.31;4412892;32;20602;-79
2022/01/23 01:46:20;;;;;;;0.70;0.70;;;;;;;2.47;41.99;100914.13;4413415;32;20994;-79
2022/01/23 01:48:50;;;;;;;0.80;0.80;;;;;;;2.76;41.28;100913.47;4414776;32;20357;-79
2022/01/23 01:51:18;;;;;;;0.00;0.00;;;;;;;2.78;41.08;100917.00;4412488;32;20296;-78
2022/01/23 01:53:56;;;;;;;0.00;0.00;;;;;;;2.85;41.02;100929.41;4407312;32;20331;-78
2022/01/23 01:56:24;;;;;;;0.00;0.00;;;;;;;2.89;40.70;100930.47;4414812;32;20262;-79
2022/01/23 02:09:44;;;;;;;0.45;0.45;;;;;;;3.11;40.14;100932.72;4412404;32;20286;-80
2022/01/23 02:15:25;;;;;;;0.13;0.13;;;;;;;2.97;39.88;100913.97;4427728;32;20299;-79
2022/01/23 02:50:47;;;;;;;;;;;;;;;3.16;41.31;100906.66;4425595;32;20020;-80
2022/01/23 02:55:48;;;;;;;;;;;;;;;2.88;41.60;100908.25;4422866;32;19992;-80
2022/01/23 02:58:20;;;;;;;;;;;;;;;2.97;41.26;100913.97;4416963;32;20034;-78
2022/01/23 03:00:51;;;;;;;;;;;;;;;3.08;40.78;100907.84;4417748;32;20022;-78
2022/01/23 03:03:22;;;;;;;;;;;;;;;3.14;40.61;100908.22;4430764;32;19984;-78
2022/01/23 03:06:16;;;;;;;;;;;;;;;2.93;41.39;100902.63;4430097;32;19977;-79
2022/01/23 03:09:23;;;;;;;;;;;;;;;2.83;41.46;100899.41;4430166;32;20729;-78
2022/01/23 03:25:06;;;;;;;;;;;;;;;2.49;43.20;100908.34;4422954;32;19985;-79
2022/01/23 03:30:39;;;;;;;;;;;;;;;2.64;43.02;100915.22;4412938;32;19996;-79
2022/01/23 03:33:06;;;;;;;;;;;;;;;2.49;43.62;100917.66;4430116;32;19976;-80
2022/01/23 03:35:33;;;;;;;;;;;;;;;2.63;43.03;100922.00;4422494;32;20004;-80
2022/01/23 03:37:59;;;;;;;;;;;;;;;2.78;42.22;100925.56;4430862;32;19981;-79
2022/01/23 03:40:27;;;;;;;;;;;;;;;2.67;42.88;100918.84;4432404;32;20040;-79
2022/01/23 03:43:07;;;;;;;;;;;;;;;2.82;42.75;100918.09;4247992;32;5001942;-80
2022/01/23 03:50:43;;;;;;;;;;;;;;;3.06;42.69;100913.62;4417751;32;20008;-79
2022/01/23 03:53:11;;;;;;;;;;;;;;;3.20;41.77;100908.63;4424006;32;20003;-79
2022/01/23 03:55:38;;;;;;;;;;;;;;;3.31;41.62;100905.81;4411700;32;20015;-80
2022/01/23 03:58:05;;;;;;;;;;;;;;;3.09;42.08;100898.47;4428948;32;20348;-80
2022/01/23 04:00:32;;;;;;;;;;;;;;;2.78;43.14;100902.56;4430921;32;20007;-80
2022/01/23 04:03:00;;;;;;;;;;;;;;;3.13;41.77;100898.78;4430215;32;19976;-81
2022/01/23 04:05:27;;;;;;;;;;;;;;;2.84;42.95;100906.25;4416401;32;19977;-80
2022/01/23 04:07:54;;;;;;;;;;;;;;;2.77;43.40;100910.97;4430141;32;20003;-80
2022/01/23 04:10:26;;;;;;;;;;;;;;;2.89;42.72;100904.91;4429568;32;19988;-80
2022/01/23 04:13:14;;;;;;;;;;;;;;;2.98;42.38;100900.38;4428714;32;20032;-80
2022/01/23 04:15:48;;;;;;;;;;;;;;;3.19;42.03;100901.72;4431766;32;20043;-79
2022/01/23 04:35:04;;;;;;;;;;;;;;;3.19;41.42;100906.84;4431583;32;19969;-83
2022/01/23 04:45:59;;;;;;;;;;;;;;;3.29;41.22;100912.50;4405026;32;20659;-80
2022/01/23 04:59:36;;;;;;;;;;;;;;;3.48;40.79;100911.22;4401765;32;20036;-80
2022/01/23 05:04:32;;;;;;;;;;;;;;;3.38;41.01;100907.97;4431814;32;19989;-79
2022/01/23 05:07:02;;;;;;;;;;;;;;;3.47;40.81;100908.53;4432016;32;20031;-80
2022/01/23 05:09:29;;;;;;;;;;;;;;;3.41;40.89;100905.59;4431164;32;20039;-80
2022/01/23 05:12:02;;;;;;;;;;;;;;;3.38;41.29;100913.09;4431538;32;19999;-79
2022/01/23 05:14:33;;;;;;;;;;;;;;;3.40;40.75;100911.53;4421012;32;20365;-80
2022/01/23 05:17:01;;;;;;;;;;;;;;;3.36;40.92;100904.44;4418074;32;20110;-80
2022/01/23 05:19:28;;;;;;;;;;;;;;;3.44;40.49;100908.34;4431779;32;20000;-79
2022/01/23 05:24:48;;;;;;;;;;;;;;;2.84;42.35;100914.84;4419741;32;20025;-79
2022/01/23 05:27:16;;;;;;;;;;;;;;;3.33;40.80;100920.50;4402229;32;19986;-78
2022/01/23 05:29:43;;;;;;;;;;;;;;;3.37;40.57;100936.91;4408180;32;20079;-81
2022/01/23 05:32:12;;;;;;;;;;;;;;;3.24;41.09;100933.59;4431026;32;19993;-80
2022/01/23 05:34:39;;;;;;;;;;;;;;;3.00;42.00;100949.97;4431587;32;20033;-82
2022/01/23 05:37:07;;;;;;;;;;;;;;;3.34;40.82;100949.53;4431998;32;20038;-80
2022/01/23 05:39:34;;;;;;;;;;;;;;;3.13;41.29;100951.63;4417740;32;20128;-80
2022/01/23 05:42:09;;;;;;;;;;;;;;;3.21;41.36;100946.19;4417538;32;20052;-80
2022/01/23 05:44:38;;;;;;;;;;;;;;;3.31;40.90;100946.78;4418596;32;20045;-79
2022/01/23 05:47:06;;;;;;;;;;;;;;;3.28;41.48;100956.81;4431824;32;19989;-80
2022/01/23 05:49:33;;;;;;;;;;;;;;;3.47;40.68;100959.72;4431524;32;19999;-79
2022/01/23 05:52:01;;;;;;;;;;;;;;;3.29;41.42;100963.69;4431714;32;20348;-80
2022/01/23 05:54:28;;;;;;;;;;;;;;;3.21;41.37;100961.53;4417483;32;20007;-79
2022/01/23 05:56:56;;;;;;;;;;;;;;;3.20;41.41;100959.78;4401215;32;20291;-80
2022/01/23 05:59:23;;;;;;;;;;;;;;;3.28;41.18;100956.81;4414912;32;20004;-78
2022/01/23 06:01:51;;;;;;;;;;;;;;;3.39;40.71;100971.19;4414122;32;19988;-80
2022/01/23 06:04:22;;;;;;;;;;;;;;;3.13;41.27;100978.09;4415083;32;20095;-79
2022/01/23 06:06:50;;;;;;;;;;;;;;;3.34;41.34;100977.66;4416477;32;19996;-80
2022/01/23 06:09:19;;;;;;;;;;;;;;;3.31;41.68;100987.72;4413964;32;19989;-80
2022/01/23 06:11:46;;;;;;;;;;;;;;;3.21;41.85;100987.13;4416009;32;19988;-79
2022/01/23 06:14:13;;;;;;;;;;;;;;;3.35;42.09;100984.56;4414369;32;20334;-79
2022/01/23 06:16:40;;;;;;;;;;;;;;;3.26;41.90;100990.88;4414282;32;20027;-79
2022/01/23 06:19:10;;;;;;;;;;;;;;;3.58;41.25;100994.56;4402231;32;20020;-79
2022/01/23 06:21:38;;;;;;;;;;;;;;;3.68;41.27;100991.78;4415952;32;19985;-79
2022/01/23 06:24:06;;;;;;;;;;;;;;;3.61;41.49;100999.91;4416431;32;20495;-80
2022/01/23 06:26:40;;;;;;;;;;;;;;;3.80;40.62;101001.00;4417159;32;19977;-79
2022/01/23 06:29:07;;;;;;;;;;;;;;;3.73;40.96;101010.00;4400896;32;19993;-79
2022/01/23 06:31:34;;;;;;;;;;;;;;;3.72;41.24;101019.34;4401430;32;20079;-79
2022/01/23 06:34:02;;;;;;;;;;;;;;;3.65;41.75;101009.53;4417793;32;20194;-79
2022/01/23 06:36:29;;;;;;;;;;;;;;;3.90;40.85;101008.50;4414850;32;19988;-83
2022/01/23 06:38:56;;;;;;;;;;;;;;;3.86;41.09;101002.31;4413627;32;20285;-83
2022/01/23 06:41:24;;;;;;;;;;;;;;;3.79;41.14;101009.50;4407583;32;19985;-83
2022/01/23 06:43:52;;;;;;;;;;;;;;;3.79;41.15;100996.69;4414203;32;19997;-81
2022/01/23 06:46:21;;;;;;;;;;;;;;;3.63;41.75;100990.59;4401230;32;19997;-83
2022/01/23 06:48:48;;;;;;;;;;;;;;;3.61;42.12;101005.00;4400893;32;19993;-81
2022/01/23 06:51:15;;;;;;;;;;;;;;;3.79;41.08;101009.50;4414619;32;20004;-81
2022/01/23 06:53:42;;;;;;;;;;;;;;;3.48;41.86;101012.72;4397574;32;20006;-80
2022/01/23 06:56:11;;;;;;;;;;;;;;;3.19;42.99;101004.06;4415389;32;19965;-81
2022/01/23 06:58:38;;;;;;;;;;;;;;;3.45;42.16;101012.53;4415979;32;20003;-81
2022/01/23 07:01:07;;;;;;;;;;;;;;;3.39;42.80;101010.44;4412817;32;20562;-80
2022/01/23 07:03:35;;;;;;;;;;;;;;;3.60;41.83;101016.03;4404498;32;20028;-80
2022/01/23 07:06:02;;;;;;;;;;;;;;;3.73;41.08;101016.03;4395462;32;19981;-80
2022/01/23 07:08:30;;;;;;;;;;;;;;;3.51;41.82;101018.03;4411330;32;20064;-82
2022/01/23 07:10:58;;;;;;;;;;;;;;;3.78;41.56;101010.28;4413304;32;20035;-81
2022/01/23 07:13:26;;;;;;;;;;;;;;;3.63;41.65;101013.66;4399922;32;19989;-82
2022/01/23 07:15:53;;;;;;;;;;;;;;;3.68;41.20;101012.28;4409393;32;19977;-80
2022/01/23 07:18:21;;;;;;;;;;;;;;;3.76;40.79;101020.41;4400075;32;20325;-80
2022/01/23 07:20:49;;;;;;;;;;;;;;;3.73;41.20;101021.16;4400559;32;20339;-79
2022/01/23 07:23:22;;;;;;;;;;;;;;;3.71;41.28;101025.28;4400329;32;20351;-80
2022/01/23 07:25:50;;;;;;;;;;;;;;;4.03;40.79;101021.25;4417642;32;20050;-82
2022/01/23 07:28:20;;;;;;;;;;;;;;;3.94;40.98;101036.06;4414598;32;20004;-82
2022/01/23 07:33:14;;;;;;;;;;;;;;;3.86;41.41;101024.44;4418214;32;20007;-80
2022/01/23 07:35:41;;;;;;;;;;;;;;;3.88;41.37;101021.19;4423657;32;20023;-83
2022/01/23 07:38:10;;;;;;;;;;;;;;;4.05;41.07;101029.03;4421100;32;20043;-81
2022/01/23 07:40:37;;;;;;;;;;;;;;;4.26;40.01;101019.19;4417986;32;20342;-82
2022/01/23 07:43:06;;;;;;;;;;;;;;;4.12;40.48;101015.81;4418185;32;20015;-82
2022/01/23 07:45:34;;;;;;;;;;;;;;;4.22;39.93;101017.25;4409385;32;20379;-80
2022/01/23 07:48:01;;;;;;;;;;;;;;;3.73;41.17;101016.03;4413948;32;19993;-80
2022/01/23 07:50:29;;;;;;;;;;;;;;;3.83;41.45;101012.34;4414543;32;19997;-80
2022/01/23 07:52:58;;;;;;;;;;;;;;;3.95;41.08;101019.87;4397832;32;19973;-80
2022/01/23 07:55:25;;;;;;;;;;;;;;;3.82;40.98;101025.06;4404107;32;20073;-80
2022/01/23 07:58:02;;;;;;;;;;;;;;;3.55;42.01;101027.66;4409894;32;20008;-80
2022/01/23 08:03:15;;;;;;;;;;;;;;;4.13;40.48;101028.72;4410330;32;20333;-80
2022/01/23 08:05:44;;;;;;;;;;;;;;;4.13;40.54;101028.72;4395101;32;20004;-77
2022/01/23 08:08:12;;;;;;;;;;;;;;;4.12;40.73;101042.31;4379070;32;20040;-76
2022/01/23 08:10:39;;;;;;;;;;;;;;;4.11;40.93;101040.53;4399378;32;20319;-78
2022/01/23 08:13:06;;;;;;;;;;;;;;;4.25;40.34;101027.69;4394229;32;19981;-77
2022/01/23 08:15:33;;;;;;;;;;;;;;;4.22;40.52;101035.19;4398916;32;19992;-77
2022/01/23 08:18:01;;;;;;;;;;;;;;;4.01;41.01;101038.19;4410521;32;19981;-77
2022/01/23 08:20:28;;;;;;;;;;;;;;;3.55;42.66;101035.34;4406321;32;19986;-77
2022/01/23 08:22:55;;;;;;;;;;;;;;;3.79;41.70;101047.91;4405920;32;19978;-77
2022/01/23 08:25:22;;;;;;;;;;;;;;;4.04;41.07;101040.94;4410406;32;19973;-77
2022/01/23 08:27:49;;;;;;;;;;;;;;;4.10;41.12;101043.00;4410868;32;20399;-78
2022/01/23 08:30:16;;;;;;;;;;;;;;;4.14;41.16;101056.09;4394115;32;19997;-78
2022/01/23 08:32:43;;;;;;;;;;;;;;;4.09;40.81;101049.81;4390397;32;20019;-77
2022/01/23 08:35:10;;;;;;;;;;;;;;;4.13;41.64;101064.56;4398196;32;20326;-79
2022/01/23 08:37:37;;;;;;;;;;;;;;;4.22;41.25;101060.81;4410139;32;20040;-78
2022/01/23 08:40:15;;;;;;;;;;;;;;;4.24;40.13;101066.91;4385244;32;20039;-79
2022/01/23 08:42:42;;;;;;;;;;;;;;;4.14;41.39;101066.34;4395195;32;20049;-78
2022/01/23 08:45:09;;;;;;;;;;;;;;;4.70;39.69;101074.81;4383887;32;20319;-78
2022/01/23 08:47:36;;;;;;;;;;;;;;;4.40;40.69;101069.59;4388024;32;19986;-73
2022/01/23 08:50:04;;;;;;;;;;;;;;;4.64;40.60;101063.38;4394925;32;20182;-75
2022/01/23 08:52:30;;;;;;;;;;;;;;;4.79;40.04;101065.09;4397508;32;19986;-77
2022/01/23 08:54:57;;;;;;;;;;;;;;;4.72;39.80;101062.94;4397607;32;20304;-77
2022/01/23 08:57:24;;;;;;;;;;;;;;;4.88;38.96;101061.41;4390463;32;20025;-75
2022/01/23 08:59:51;;;;;;;;;;;;;;;4.74;40.14;101061.38;4399395;32;19993;-76
2022/01/23 09:02:18;;;;;;;;;;;;;;;4.64;40.51;101055.69;4396760;32;19990;-82
2022/01/23 09:04:45;;;;;;;;;;;;;;;4.86;39.86;101072.34;4384268;32;20354;-75
2022/01/23 09:07:12;;;;;;;;;;;;;;;4.56;40.52;101062.06;4371792;32;19979;-74
2022/01/23 09:09:40;;;;;;;;;;;;;;;4.63;40.84;101077.00;4376414;32;20433;-75
2022/01/23 09:14:47;;;;;;;;;;;;;;;4.99;40.04;101090.25;4395864;32;20349;-74
2022/01/23 09:17:14;;;;;;;;;;;;;;;5.12;39.98;101087.59;4399227;32;20384;-74
2022/01/23 09:19:41;;;;;;;;;;;;;;;5.06;39.54;101087.22;4392420;32;20433;-74
2022/01/23 09:22:08;;;;;;;;;;;;;;;5.31;39.23;101083.50;4395090;32;19985;-76
2022/01/23 09:24:36;;;;;;;;;;;;;;;5.09;39.34;101097.66;4402020;32;19984;-76
2022/01/23 09:27:06;;;;;;;;;;;;;;;5.28;39.31;101088.47;4407876;32;19982;-73
2022/01/23 09:29:39;;;;;;;;;;;;;;;5.30;40.00;101086.88;4400993;32;20000;-74
2022/01/23 09:32:11;;;;;;;;;;;;;;;5.03;41.33;101097.31;4390350;32;20001;-74
2022/01/23 09:34:38;;;;;;;;;;;;;;;5.26;40.02;101093.50;4405134;32;19991;-78
2022/01/23 09:37:06;;;;;;;;;;;;;;;5.08;40.01;101090.78;4431972;32;19969;-74
2022/01/23 09:39:33;;;;;;;;;;;;;;;4.93;40.88;101100.12;4430921;32;19977;-75
2022/01/23 09:42:03;;;;;;;;;;;;;;;5.01;41.36;101092.88;4431244;32;19985;-75
2022/01/23 09:44:31;;;;;;;;;;;;;;;4.74;42.02;101087.03;4419021;32;19987;-74
2022/01/23 09:46:59;;;;;;;;;;;;;;;4.85;42.00;101091.09;4417477;32;20711;-75
2022/01/23 09:49:26;;;;;;;;;;;;;;;5.17;40.89;101094.66;4418834;32;20007;-74
2022/01/23 09:51:53;;;;;;;;;;;;;;;5.27;40.10;101082.47;4417034;32;19993;-74
2022/01/23 09:54:20;;;;;;;;;;;;;;;5.25;40.71;101089.19;4417041;32;19984;-75
2022/01/23 09:57:07;;;;;;;;;;;;;;;5.37;40.45;101091.56;4397734;32;9999828;-74
2022/01/23 09:59:34;;;;;;;;;;;;;;;5.50;39.96;101086.31;3791372;32;10011048;-74
2022/01/23 10:02:03;;;;;;;;;;;;;;;5.64;40.50;101091.34;4417860;32;19993;-73
2022/01/23 10:04:31;;;;;;;;;;;;;;;5.84;39.64;101090.78;4431122;32;19981;-74
2022/01/23 10:06:58;;;;;;;;;;;;;;;5.07;40.99;101089.03;4417679;32;20309;-75
2022/01/23 10:09:26;;;;;;;;;;;;;;;5.47;39.91;101075.88;4429633;32;20034;-75
2022/01/23 10:11:53;;;;;;;;;;;;;;;5.51;39.68;101082.94;4430348;32;20329;-74
2022/01/23 10:14:20;;;;;;;;;;;;;;;5.78;39.92;101072.47;4417103;32;20003;-74
2022/01/23 10:16:47;;;;;;;;;;;;;;;6.01;38.83;101076.31;4431047;32;19985;-75
2022/01/23 10:19:15;;;;;;;;;;;;;;;5.87;39.18;101072.97;4431806;32;20073;-74
2022/01/23 10:21:43;;;;;;;;;;;;;;;5.97;38.71;101074.37;4431125;32;19985;-75
2022/01/23 10:24:13;;;;;;;;;;;;;;;5.78;39.44;101082.75;4431058;32;20029;-75
2022/01/23 10:26:47;;;;;;;;;;;;;;;5.88;39.57;101074.72;4431256;32;20010;-76
2022/01/23 10:29:24;;;;;;;;;;;;;;;5.38;40.70;101075.34;4417376;32;20356;-80
2022/01/23 10:32:05;;;;;;;;;;;;;;;5.15;41.81;101070.59;4417484;32;19985;-75
2022/01/23 10:34:39;;;;;;;;;;;;;;;5.33;41.43;101071.66;4411915;32;20329;-76
2022/01/23 10:37:07;;;;;;;;;;;;;;;5.77;41.01;101066.41;4417017;32;19977;-75
2022/01/23 10:39:38;;;;;;;;;;;;;;;5.18;41.79;101069.09;4430917;32;19981;-75
2022/01/23 10:47:55;;;;;;;;;;;;;;;5.46;41.59;101079.25;4416578;32;19992;-76
2022/01/23 10:50:22;;;;;;;;;;;;;;;5.42;41.92;101073.84;4430537;32;20043;-75
2022/01/23 10:52:51;;;;;;;;;;;;;;;5.57;41.93;101075.59;4430187;32;20095;-75
2022/01/23 10:55:31;;;;;;;;;;;;;;;5.92;41.33;101066.38;4431083;32;20004;-75
2022/01/23 10:58:00;;;;;;;;;;;;;;;6.19;40.42;101063.53;4431738;32;19969;-75
2022/01/23 11:00:54;;;;;;;;;;;;;;;5.92;40.92;101058.66;4430365;32;20038;-74
2022/01/23 11:03:22;;;;;;;;;;;;;;;5.82;41.24;101066.69;4416935;32;19977;-76
2022/01/23 11:05:50;;;;;;;;;;;;;;;6.00;40.53;101065.16;4431059;32;20027;-75
2022/01/23 11:08:22;;;;;;;;;;;;;;;6.19;40.13;101063.53;4430657;32;19973;-74
2022/01/23 11:10:52;;;;;;;;;;;;;;;6.50;38.88;101048.94;4430927;32;19989;-74
2022/01/23 11:19:20;;;;;;;;;;;;;;;6.40;38.86;101062.12;4424248;32;19998;-75
2022/01/23 11:21:48;;;;;;;;;;;;;;;6.33;39.48;101065.19;4430086;32;19985;-76
2022/01/23 11:24:19;;;;;;;;;;;;;;;6.35;39.80;101068.72;4430251;32;19984;-76
2022/01/23 11:26:45;;;;;;;;;;;;;;;6.04;40.59;101072.22;4429988;32;20056;-74
2022/01/23 11:29:14;;;;;;;;;;;;;;;6.08;40.82;101067.25;4430694;32;20333;-74
2022/01/23 11:31:43;;;;;;;;;;;;;;;6.31;39.54;101066.78;4394435;32;20362;-74
2022/01/23 11:34:12;;;;;;;;;;;;;;;6.22;40.12;101066.28;4387373;32;20350;-76
2022/01/23 11:36:39;;;;;;;;;;;;;;;6.41;39.77;101058.72;4399615;32;19989;-74
2022/01/23 11:39:15;;;;;;;;;;;;;;;6.40;40.01;101056.97;4415392;32;19977;-74
2022/01/23 11:56:23;;;;;;;;;;;;;;;6.29;40.53;101060.69;4386685;32;20802;-75
2022/01/23 11:58:51;;;;;;;;;;;;;;;5.76;42.18;101058.62;4415211;32;19977;-74
2022/01/23 12:01:19;;;;;;;;;;;;;;;6.04;41.44;101056.78;4415398;32;19969;-75
2022/01/23 12:04:05;;;;;;;;;;;;;;;6.35;40.90;101048.16;4401355;32;19977;-74
2022/01/23 12:06:32;;;;;;;;;;;;;;;6.61;40.35;101046.94;4415380;32;20730;-75
2022/01/23 12:09:16;;;;;;;;;;;;;;;6.38;40.30;101048.31;4414637;32;19977;-75
2022/01/23 12:12:01;;;;;;;;;;;;;;;6.50;40.48;101043.78;4415023;32;19973;-75
2022/01/23 12:17:12;;;;;;;;;;;;;;;5.80;42.73;101040.87;4414641;32;20042;-76
2022/01/23 12:19:53;;;;;;;;;;;;;;;6.50;40.58;101043.78;4414525;32;19991;-76
2022/01/23 12:22:25;;;;;;;;;;;;;;;6.01;40.84;101046.34;4402410;32;20005;-77
2022/01/23 12:24:53;;;;;;;;;;;;;;;6.32;41.13;101042.84;4413111;32;20349;-77
2022/01/23 12:27:23;;;;;;;;;;;;;;;6.64;40.63;101041.06;4413529;32;20003;-78
2022/01/23 12:29:50;;;;;;;;;;;;;;;6.79;39.97;101036.66;4429075;32;20006;-77
2022/01/23 12:32:19;;;;;;;;;;;;;;;6.85;38.88;101034.41;4428927;32;20026;-75
2022/01/23 12:34:47;;;;;;;;;;;;;;;6.61;39.83;101031.50;4429815;32;20064;-76
2022/01/23 12:37:13;;;;;;;;;;;;;;;6.66;39.63;101029.13;4418458;32;19988;-75
2022/01/23 12:39:40;;;;;;;;;;;;;;;6.36;39.51;101026.75;4431215;32;20000;-75
2022/01/23 12:42:07;;;;;;;;;;;;;;;6.63;39.38;101028.97;4420960;32;19969;-75
2022/01/23 12:44:35;;;;;;;;;;;;;;;6.52;39.57;101026.75;4431521;32;19992;-75
2022/01/23 12:47:03;;;;;;;;;;;;;;;6.78;38.39;101034.91;4431412;32;20341;-76
2022/01/23 12:49:34;;;;;;;;;;;;;;;6.79;38.09;101026.38;4431131;32;20004;-75
2022/01/23 12:52:10;;;;;;;;;;;;;;;6.34;38.92;101025.78;4405178;32;20533;-74
2022/01/23 12:54:46;;;;;;;;;;;;;;;6.53;38.55;101023.34;4383198;32;20034;-74
2022/01/23 12:57:38;;;;;;;;;;;;;;;6.24;38.34;101023.56;4421195;32;20000;-74
2022/01/23 13:00:09;;;;;;;;;;;;;;;6.66;36.90;101029.13;4428882;32;19995;-74
2022/01/23 13:02:45;;;;;;;;;;;;;;;6.48;36.47;101021.38;4430480;32;20004;-73
2022/01/23 13:05:14;;;;;;;;;;;;;;;6.28;36.57;101025.47;4402320;32;19985;-74
2022/01/23 13:07:52;;;;;;;;;;;;;;;6.45;36.39;101034.09;4415678;32;20467;-74
2022/01/23 13:10:37;;;;;;;;;;;;;;;6.62;35.37;101022.06;4419476;32;19985;-73
2022/01/23 13:13:22;;;;;;;;;;;;;;;6.43;36.30;101031.41;4414614;32;19994;-75
2022/01/23 13:16:30;;;;;;;;;;;;;;;6.61;36.18;101021.19;4417851;32;20026;-75
2022/01/23 13:19:16;;;;;;;;;;;;;;;6.62;36.30;101032.38;4403692;32;19985;-75
2022/01/23 13:30:12;;;;;;;;;;;;;;;7.01;35.50;101012.00;4417353;32;20488;-75
2022/01/23 13:32:44;;;;;;;;;;;;;;;7.01;34.56;101020.59;4429890;32;19997;-75
2022/01/23 13:35:14;;;;;;;;;;;;;;;7.11;35.04;101029.66;4430583;32;19988;-75
2022/01/23 13:37:45;;;;;;;;;;;;;;;7.09;34.89;101021.00;4430209;32;19981;-74
2022/01/23 13:40:19;;;;;;;;;;;;;;;7.28;34.97;101023.66;4430510;32;19988;-75
2022/01/23 13:51:20;;;;;;;;;;;;;;;7.21;34.64;101031.88;4421886;32;19989;-75
2022/01/23 13:59:21;;;;;;;;;;;;;;;6.78;36.01;101034.03;4429062;32;20337;-75
2022/01/23 14:02:32;;;;;;;;;;;;;;;6.92;35.63;101033.94;4430299;32;20041;-77
2022/01/23 14:04:39;;;;;;;;;;;;;;;6.93;36.08;101040.84;4411015;32;20003;-75
2022/01/23 14:07:06;;;;;;;;;;;;;;;6.72;36.54;101029.44;4416412;32;20018;-76
2022/01/23 14:09:39;;;;;;;;;;;;;;;7.05;35.69;101026.78;4403437;32;20033;-75
2022/01/23 14:12:08;;;;;;;;;;;;;;;6.90;35.84;101025.22;4394253;32;789126;-76
2022/01/23 14:14:35;;;;;;;;;;;;;;;6.97;35.52;101027.28;4430858;32;19982;-78
2022/01/23 14:17:12;;;;;;;;;;;;;;;6.92;35.83;101021.06;4431031;32;20034;-77
2022/01/23 14:19:39;;;;;;;;;;;;;;;6.79;36.19;101026.38;4418292;32;19981;-77
2022/01/23 14:22:06;;;;;;;;;;;;;;;6.95;35.29;101023.75;4431164;32;20023;-76
2022/01/23 14:24:34;;;;;;;;;;;;;;;7.02;35.20;101019.81;4417141;32;20009;-75
2022/01/23 14:27:03;;;;;;;;;;;;;;;6.76;35.68;101026.22;4430376;32;19977;-76
2022/01/23 14:29:30;;;;;;;;;;;;;;;6.77;35.83;101028.00;4419984;32;19974;-76
2022/01/23 14:32:07;;;;;;;;;;;;;;;6.60;36.22;101023.69;4429674;32;20326;-77
2022/01/23 14:34:34;;;;;;;;;;;;;;;6.39;36.34;101028.62;4418495;32;19981;-72
2022/01/23 14:37:06;;;;;;;;;;;;;;;6.29;37.03;101037.53;4416793;32;19985;-71
2022/01/23 14:39:33;;;;;;;;;;;;;;;6.37;36.98;101036.25;4416398;32;20001;-73
2022/01/23 14:42:14;;;;;;;;;;;;;;;6.77;35.52;101038.28;4419055;32;20351;-73
2022/01/23 14:44:42;;;;;;;;;;;;;;;6.73;36.02;101051.78;4417223;32;19977;-72
2022/01/23 14:47:09;;;;;;;;;;;;;;;6.29;36.79;101050.41;4403492;32;20037;-73
2022/01/23 14:49:37;;;;;;;;;;;;;;;6.26;37.28;101052.81;4405576;32;19981;-77
2022/01/23 14:52:09;;;;;;;;;;;;;;;6.45;36.90;101052.09;4416265;32;20021;-75
2022/01/23 14:54:37;;;;;;;;;;;;;;;6.32;36.98;101068.56;4405462;32;20044;-73
2022/01/23 14:57:05;;;;;;;;;;;;;;;6.44;37.03;101073.44;4416764;32;20350;-73
2022/01/23 14:59:32;;;;;;;;;;;;;;;6.20;37.14;101075.62;4415998;32;19981;-74
2022/01/23 15:02:00;;;;;;;;;;;;;;;6.34;37.41;101074.66;4403773;32;19974;-73
2022/01/23 15:04:27;;;;;;;;;;;;;;;6.37;37.75;101081.66;4418194;32;19988;-77
2022/01/23 15:06:54;;;;;;;;;;;;;;;6.05;38.73;101089.41;4416631;32;19978;-73
2022/01/23 15:09:22;;;;;;;;;;;;;;;6.30;38.35;101095.88;4430618;32;20043;-72
2022/01/23 15:11:49;;;;;;;;;;;;;;;6.48;38.27;101091.72;4429923;32;19990;-77
2022/01/23 15:14:16;;;;;;;;;;;;;;;6.47;38.33;101092.50;4416213;32;19982;-73
2022/01/23 15:16:43;;;;;;;;;;;;;;;6.53;38.17;101095.38;4405626;32;19977;-73
2022/01/23 15:19:10;;;;;;;;;;;;;;;6.52;38.40;101098.78;4421490;32;20024;-75
2022/01/23 15:21:37;;;;;;;;;;;;;;;6.30;38.69;101095.88;4410282;32;19989;-73
2022/01/23 15:24:04;;;;;;;;;;;;;;;6.47;38.25;101105.34;4416921;32;20076;-72
2022/01/23 15:26:32;;;;;;;;;;;;;;;6.52;37.92;101103.91;4406900;32;19990;-74
2022/01/23 15:29:01;;;;;;;;;;;;;;;6.53;38.15;101105.66;4386305;32;20039;-72
2022/01/23 15:31:28;;;;;;;;;;;;;;;6.32;38.38;101109.69;4429654;32;19995;-81
2022/01/23 15:33:55;;;;;;;;;;;;;;;6.38;38.31;101104.87;4425501;32;19981;-75
2022/01/23 15:36:22;;;;;;;;;;;;;;;6.31;38.20;101112.19;4428843;32;20313;-72
2022/01/23 15:38:49;;;;;;;;;;;;;;;6.31;38.02;101102.78;4430747;32;20323;-73
2022/01/23 15:41:16;;;;;;;;;;;;;;;6.37;38.07;101107.38;4429385;32;19989;-75
2022/01/23 15:43:42;;;;;;;;;;;;;;;6.23;38.25;101109.22;4428374;32;19981;-72
2022/01/23 15:46:10;;;;;;;;;;;;;;;6.25;38.29;101107.59;4429968;32;19989;-71
2022/01/23 15:48:36;;;;;;;;;;;;;;;6.23;38.13;101114.34;4428400;32;20039;-77
2022/01/23 15:51:03;;;;;;;;;;;;;;;6.24;38.01;101116.09;4430647;32;19993;-77
2022/01/23 15:53:30;;;;;;;;;;;;;;;6.15;38.31;101121.63;4411104;32;19981;-71
2022/01/23 15:55:57;;;;;;;;;;;;;;;6.11;38.35;101123.97;4401079;32;20314;-73
2022/01/23 15:58:27;;;;;;;;;;;;;;;6.08;37.98;101128.94;4408850;32;19993;-77
2022/01/23 16:00:54;;;;;;;;;;;;;;;5.90;38.45;101124.50;4407780;32;19981;-81
2022/01/23 16:03:24;;;;;;;;;;;;;;;5.94;38.45;101129.06;4420402;32;20448;-73
2022/01/23 16:05:50;;;;;;;;;;;;;;;5.85;38.62;101128.53;4427721;32;19990;-77
2022/01/23 16:08:18;;;;;;;;;;;;;;;5.74;38.69;101132.16;4429793;32;20331;-75
2022/01/23 16:10:47;;;;;;;;;;;;;;;5.60;39.06;101134.84;4425220;32;19989;-72
2022/01/23 16:13:15;;;;;;;;;;;;;;;5.41;39.61;101142.28;4406269;32;19989;-73
2022/01/23 16:15:43;;;;;;;;;;;;;;;5.42;39.91;101143.16;4429752;32;20044;-72